sensor_id;sensor_type;location;lat;lon;timestamp;pressure;altitude;pressure_sealevel;temperature;humidity
58771;BME280;44539;42.962;1.596;2022-09-27T07:44:43;96817.72;;;11.84;100.00
58771;BME280;44539;42.962;1.596;2022-09-27T07:47:09;96824.31;;;11.89;100.00
58771;BME280;44539;42.962;1.596;2022-09-27T07:49:35;96826.41;;;11.93;100.00
58771;BME280;44539;42.962;1.596;2022-09-27T07:52:00;96829.94;;;12.00;100.00
58771;BME280;44539;42.962;1.596;2022-09-27T07:54:26;96830.53;;;11.96;100.00
58771;BME280;44539;42.962;1.596;2022-09-27T07:56:51;96830.53;;;11.96;100.00
58771;BME280;44539;42.962;1.596;2022-09-27T07:59:17;96829.44;;;11.90;100.00
58771;BME280;44539;42.962;1.596;2022-09-27T08:01:43;96831.09;;;11.91;100.00
58771;BME280;44539;42.962;1.596;2022-09-27T08:06:36;96841.66;;;11.84;100.00
58771;BME280;44539;42.962;1.596;2022-09-27T08:09:05;96836.13;;;11.86;100.00
58771;BME280;44539;42.962;1.596;2022-09-27T08:11:30;96841.84;;;11.83;100.00
58771;BME280;44539;42.962;1.596;2022-09-27T08:13:56;96835.50;;;11.84;100.00
58771;BME280;44539;42.962;1.596;2022-09-27T08:16:21;96836.97;;;11.87;100.00
58771;BME280;44539;42.962;1.596;2022-09-27T08:18:47;96845.22;;;11.92;100.00
58771;BME280;44539;42.962;1.596;2022-09-27T08:21:12;96837.34;;;11.83;100.00
58771;BME280;44539;42.962;1.596;2022-09-27T08:23:38;96844.94;;;11.87;100.00
58771;BME280;44539;42.962;1.596;2022-09-27T08:26:03;96850.44;;;11.85;100.00
58771;BME280;44539;42.962;1.596;2022-09-27T08:28:29;96849.63;;;11.84;100.00
58771;BME280;44539;42.962;1.596;2022-09-27T08:30:57;96847.06;;;11.91;100.00
58771;BME280;44539;42.962;1.596;2022-09-27T08:33:23;96843.78;;;11.89;100.00
58771;BME280;44539;42.962;1.596;2022-09-27T08:35:50;96847.06;;;11.91;100.00
58771;BME280;44539;42.962;1.596;2022-09-27T08:38:15;96853.91;;;12.00;100.00
58771;BME280;44539;42.962;1.596;2022-09-27T08:41:00;96851.97;;;12.16;100.00
58771;BME280;44539;42.962;1.596;2022-09-27T08:49:23;96851.25;;;12.29;100.00
58771;BME280;44539;42.962;1.596;2022-09-27T08:51:52;96850.63;;;12.26;100.00
58771;BME280;44539;42.962;1.596;2022-09-27T08:54:24;96855.75;;;12.28;100.00
58771;BME280;44539;42.962;1.596;2022-09-27T08:56:58;96856.97;;;12.25;100.00
58771;BME280;44539;42.962;1.596;2022-09-27T08:59:30;96859.78;;;12.17;100.00
58771;BME280;44539;42.962;1.596;2022-09-27T09:01:58;96852.56;;;12.11;100.00
58771;BME280;44539;42.962;1.596;2022-09-27T09:04:36;96857.28;;;12.16;100.00
58771;BME280;44539;42.962;1.596;2022-09-27T09:10:05;96859.97;;;12.16;100.00
58771;BME280;44539;42.962;1.596;2022-09-27T09:12:52;96866.25;;;12.08;100.00
58771;BME280;44539;42.962;1.596;2022-09-27T09:26:32;96866.81;;;12.25;100.00
58771;BME280;44539;42.962;1.596;2022-09-27T09:32:32;96865.63;;;12.34;100.00
58771;BME280;44539;42.962;1.596;2022-09-27T09:35:06;96865.88;;;12.39;100.00
58771;BME280;44539;42.962;1.596;2022-09-27T09:37:40;96870.53;;;12.31;100.00
58771;BME280;44539;42.962;1.596;2022-09-27T09:40:20;96870.88;;;12.21;100.00
58771;BME280;44539;42.962;1.596;2022-09-27T09:45:45;96876.69;;;12.31;100.00
58771;BME280;44539;42.962;1.596;2022-09-27T09:48:23;96875.84;;;12.31;100.00
58771;BME280;44539;42.962;1.596;2022-09-27T09:50:58;96880.00;;;12.33;100.00
58771;BME280;44539;42.962;1.596;2022-09-27T09:56:04;96866.28;;;12.36;100.00
58771;BME280;44539;42.962;1.596;2022-09-27T10:01:18;96873.41;;;12.29;100.00
58771;BME280;44539;42.962;1.596;2022-09-27T10:03:45;96880.13;;;12.25;100.00
58771;BME280;44539;42.962;1.596;2022-09-27T10:06:12;96868.94;;;12.36;100.00
58771;BME280;44539;42.962;1.596;2022-09-27T10:08:38;96869.16;;;12.41;100.00
58771;BME280;44539;42.962;1.596;2022-09-27T10:11:05;96875.53;;;12.40;100.00
58771;BME280;44539;42.962;1.596;2022-09-27T10:13:33;96872.72;;;12.49;100.00
58771;BME280;44539;42.962;1.596;2022-09-27T10:16:07;96884.34;;;12.41;100.00
58771;BME280;44539;42.962;1.596;2022-09-27T10:18:38;96886.03;;;12.49;100.00
58771;BME280;44539;42.962;1.596;2022-09-27T10:21:10;96884.97;;;12.43;100.00
58771;BME280;44539;42.962;1.596;2022-09-27T10:26:25;96889.94;;;12.24;100.00
58771;BME280;44539;42.962;1.596;2022-09-27T10:28:51;96897.88;;;12.18;100.00
58771;BME280;44539;42.962;1.596;2022-09-27T10:31:19;96896.59;;;12.14;100.00
58771;BME280;44539;42.962;1.596;2022-09-27T10:33:57;96887.59;;;12.15;100.00
58771;BME280;44539;42.962;1.596;2022-09-27T10:36:29;96888.59;;;12.14;100.00
58771;BME280;44539;42.962;1.596;2022-09-27T10:38:57;96886.53;;;12.09;100.00
58771;BME280;44539;42.962;1.596;2022-09-27T10:41:32;96903.06;;;12.04;100.00
58771;BME280;44539;42.962;1.596;2022-09-27T10:44:18;96893.94;;;12.14;100.00
58771;BME280;44539;42.962;1.596;2022-09-27T10:46:50;96892.59;;;12.24;100.00
58771;BME280;44539;42.962;1.596;2022-09-27T10:49:33;96900.34;;;12.19;100.00
58771;BME280;44539;42.962;1.596;2022-09-27T10:52:02;96899.13;;;12.22;100.00
58771;BME280;44539;42.962;1.596;2022-09-27T10:54:33;96894.84;;;12.21;100.00
58771;BME280;44539;42.962;1.596;2022-09-27T10:57:05;96894.50;;;12.31;100.00
58771;BME280;44539;42.962;1.596;2022-09-27T10:59:38;96908.19;;;12.28;100.00
58771;BME280;44539;42.962;1.596;2022-09-27T11:02:05;96898.41;;;12.35;100.00
58771;BME280;44539;42.962;1.596;2022-09-27T11:05:05;96896.72;;;12.27;100.00
58771;BME280;44539;42.962;1.596;2022-09-27T11:07:30;96901.84;;;12.29;100.00
58771;BME280;44539;42.962;1.596;2022-09-27T11:09:57;96889.75;;;12.26;100.00
58771;BME280;44539;42.962;1.596;2022-09-27T11:12:28;96897.72;;;12.26;100.00
58771;BME280;44539;42.962;1.596;2022-09-27T11:15:00;96899.59;;;12.25;100.00
58771;BME280;44539;42.962;1.596;2022-09-27T11:17:31;96888.84;;;12.40;100.00
58771;BME280;44539;42.962;1.596;2022-09-27T11:31:07;96880.16;;;12.60;100.00
58771;BME280;44539;42.962;1.596;2022-09-27T11:47:35;96872.78;;;12.97;100.00
58771;BME280;44539;42.962;1.596;2022-09-27T11:58:09;96870.53;;;13.28;100.00
58771;BME280;44539;42.962;1.596;2022-09-27T12:06:53;96864.59;;;13.40;100.00
58771;BME280;44539;42.962;1.596;2022-09-27T12:09:24;96866.06;;;13.42;100.00
58771;BME280;44539;42.962;1.596;2022-09-27T12:14:57;96870.59;;;13.48;100.00
58771;BME280;44539;42.962;1.596;2022-09-27T12:17:47;96866.63;;;13.31;100.00
58771;BME280;44539;42.962;1.596;2022-09-27T12:20:36;96864.81;;;13.32;100.00
58771;BME280;44539;42.962;1.596;2022-09-27T12:23:06;96861.28;;;13.31;100.00
58771;BME280;44539;42.962;1.596;2022-09-27T12:25:37;96865.63;;;13.39;100.00
58771;BME280;44539;42.962;1.596;2022-09-27T12:28:09;96849.81;;;13.31;100.00
58771;BME280;44539;42.962;1.596;2022-09-27T12:30:40;96846.78;;;13.40;100.00
58771;BME280;44539;42.962;1.596;2022-09-27T12:33:29;96855.59;;;13.41;100.00
58771;BME280;44539;42.962;1.596;2022-09-27T12:36:00;96844.72;;;13.36;100.00
58771;BME280;44539;42.962;1.596;2022-09-27T12:38:43;96845.75;;;13.55;100.00
58771;BME280;44539;42.962;1.596;2022-09-27T12:41:14;96849.94;;;13.71;100.00
58771;BME280;44539;42.962;1.596;2022-09-27T12:43:44;96841.53;;;13.94;100.00
58771;BME280;44539;42.962;1.596;2022-09-27T12:51:54;96840.94;;;13.98;99.87
58771;BME280;44539;42.962;1.596;2022-09-27T13:02:51;96846.47;;;14.03;98.48
58771;BME280;44539;42.962;1.596;2022-09-27T13:08:21;96849.56;;;14.00;95.97
58771;BME280;44539;42.962;1.596;2022-09-27T13:13:14;96845.22;;;13.93;96.84
58771;BME280;44539;42.962;1.596;2022-09-27T13:15:43;96845.66;;;13.89;97.49
58771;BME280;44539;42.962;1.596;2022-09-27T13:35:34;96823.69;;;14.34;100.00
58771;BME280;44539;42.962;1.596;2022-09-27T13:37:59;96815.25;;;14.17;100.00
58771;BME280;44539;42.962;1.596;2022-09-27T13:40:38;96825.72;;;14.32;100.00
58771;BME280;44539;42.962;1.596;2022-09-27T13:45:57;96824.47;;;14.48;99.59
58771;BME280;44539;42.962;1.596;2022-09-27T13:51:05;96833.94;;;14.44;97.14
58771;BME280;44539;42.962;1.596;2022-09-27T13:53:40;96832.31;;;14.09;99.95
58771;BME280;44539;42.962;1.596;2022-09-27T13:59:03;96839.25;;;13.91;100.00
58771;BME280;44539;42.962;1.596;2022-09-27T14:01:45;96826.75;;;14.04;100.00
58771;BME280;44539;42.962;1.596;2022-09-27T14:04:30;96820.59;;;14.17;100.00
58771;BME280;44539;42.962;1.596;2022-09-27T14:07:00;96806.31;;;14.90;100.00
58771;BME280;44539;42.962;1.596;2022-09-27T14:09:32;96802.38;;;15.38;100.00
58771;BME280;44539;42.962;1.596;2022-09-27T14:12:04;96806.28;;;15.42;96.31
58771;BME280;44539;42.962;1.596;2022-09-27T14:14:32;96805.28;;;15.68;91.58
58771;BME280;44539;42.962;1.596;2022-09-27T14:16:59;96807.59;;;16.21;91.80
58771;BME280;44539;42.962;1.596;2022-09-27T14:19:25;96810.81;;;15.80;89.57
58771;BME280;44539;42.962;1.596;2022-09-27T14:21:52;96810.97;;;15.46;88.39
58771;BME280;44539;42.962;1.596;2022-09-27T14:24:32;96803.28;;;15.95;87.39
58771;BME280;44539;42.962;1.596;2022-09-27T14:27:19;96815.81;;;16.51;84.94
58771;BME280;44539;42.962;1.596;2022-09-27T14:30:17;96800.47;;;15.90;86.85
58771;BME280;44539;42.962;1.596;2022-09-27T14:32:51;96808.75;;;15.82;89.29
58771;BME280;44539;42.962;1.596;2022-09-27T14:35:21;96807.25;;;15.54;89.36
58771;BME280;44539;42.962;1.596;2022-09-27T14:38:10;96812.94;;;15.32;90.59
58771;BME280;44539;42.962;1.596;2022-09-27T14:40:58;96800.81;;;15.23;93.49
58771;BME280;44539;42.962;1.596;2022-09-27T14:43:24;96811.50;;;15.23;96.63
58771;BME280;44539;42.962;1.596;2022-09-27T14:45:52;96815.47;;;15.14;95.54
58771;BME280;44539;42.962;1.596;2022-09-27T14:48:26;96799.34;;;16.23;88.94
58771;BME280;44539;42.962;1.596;2022-09-27T14:51:00;96803.03;;;17.09;84.89
58771;BME280;44539;42.962;1.596;2022-09-27T14:53:33;96802.25;;;17.81;79.52
58771;BME280;44539;42.962;1.596;2022-09-27T14:56:00;96800.34;;;18.11;74.06
58771;BME280;44539;42.962;1.596;2022-09-27T14:58:26;96803.59;;;16.74;78.88
58771;BME280;44539;42.962;1.596;2022-09-27T15:00:54;96801.91;;;16.80;83.23
58771;BME280;44539;42.962;1.596;2022-09-27T15:03:27;96821.13;;;16.08;81.42
58771;BME280;44539;42.962;1.596;2022-09-27T15:05:54;96814.97;;;15.69;82.02
58771;BME280;44539;42.962;1.596;2022-09-27T15:08:25;96815.97;;;15.81;82.56
58771;BME280;44539;42.962;1.596;2022-09-27T15:10:51;96808.63;;;15.63;81.95
58771;BME280;44539;42.962;1.596;2022-09-27T15:13:19;96823.97;;;15.49;81.71
58771;BME280;44539;42.962;1.596;2022-09-27T15:15:45;96816.16;;;15.41;83.25
58771;BME280;44539;42.962;1.596;2022-09-27T15:18:32;96817.03;;;15.35;81.57
58771;BME280;44539;42.962;1.596;2022-09-27T15:20:59;96806.56;;;15.27;80.93
58771;BME280;44539;42.962;1.596;2022-09-27T15:23:29;96818.66;;;15.43;80.67
58771;BME280;44539;42.962;1.596;2022-09-27T15:28:29;96818.19;;;15.46;80.58
58771;BME280;44539;42.962;1.596;2022-09-27T15:30:56;96816.59;;;15.38;79.43
58771;BME280;44539;42.962;1.596;2022-09-27T15:33:24;96813.78;;;15.26;82.18
58771;BME280;44539;42.962;1.596;2022-09-27T15:35:53;96827.28;;;15.45;79.33
58771;BME280;44539;42.962;1.596;2022-09-27T15:38:39;96821.19;;;15.24;80.69
58771;BME280;44539;42.962;1.596;2022-09-27T15:41:09;96842.19;;;15.21;84.18
58771;BME280;44539;42.962;1.596;2022-09-27T15:43:43;96867.16;;;15.01;86.40
58771;BME280;44539;42.962;1.596;2022-09-27T15:51:54;96883.25;;;14.41;84.78
58771;BME280;44539;42.962;1.596;2022-09-27T15:54:21;96882.03;;;14.37;85.47
58771;BME280;44539;42.962;1.596;2022-09-27T15:56:48;96881.41;;;14.35;84.08
58771;BME280;44539;42.962;1.596;2022-09-27T15:59:26;96886.53;;;14.70;79.31
58771;BME280;44539;42.962;1.596;2022-09-27T16:01:58;96912.25;;;14.71;78.45
58771;BME280;44539;42.962;1.596;2022-09-27T16:04:25;96900.94;;;14.42;78.24
58771;BME280;44539;42.962;1.596;2022-09-27T16:06:54;96899.50;;;14.40;78.78
58771;BME280;44539;42.962;1.596;2022-09-27T16:09:20;96892.09;;;14.75;78.12
58771;BME280;44539;42.962;1.596;2022-09-27T16:11:49;96894.78;;;14.68;77.41
58771;BME280;44539;42.962;1.596;2022-09-27T16:14:16;96900.72;;;14.50;78.06
58771;BME280;44539;42.962;1.596;2022-09-27T16:16:48;96888.13;;;15.11;76.82
58771;BME280;44539;42.962;1.596;2022-09-27T16:19:15;96890.06;;;14.70;77.54
58771;BME280;44539;42.962;1.596;2022-09-27T16:21:40;96894.59;;;14.57;77.79
58771;BME280;44539;42.962;1.596;2022-09-27T16:24:08;96882.88;;;14.58;82.21
58771;BME280;44539;42.962;1.596;2022-09-27T16:26:34;96898.03;;;14.50;79.71
58771;BME280;44539;42.962;1.596;2022-09-27T16:29:00;96888.59;;;14.41;81.33
58771;BME280;44539;42.962;1.596;2022-09-27T16:31:25;96889.44;;;14.35;81.96
58771;BME280;44539;42.962;1.596;2022-09-27T16:33:51;96893.13;;;14.34;81.56
58771;BME280;44539;42.962;1.596;2022-09-27T16:36:16;96882.44;;;14.34;81.04
58771;BME280;44539;42.962;1.596;2022-09-27T16:38:51;96873.59;;;14.27;82.58
58771;BME280;44539;42.962;1.596;2022-09-27T16:41:18;96867.44;;;14.33;81.66
58771;BME280;44539;42.962;1.596;2022-09-27T16:43:44;96860.91;;;15.21;78.22
58771;BME280;44539;42.962;1.596;2022-09-27T16:46:11;96864.53;;;14.88;77.98
58771;BME280;44539;42.962;1.596;2022-09-27T16:48:39;96848.09;;;14.71;78.11
58771;BME280;44539;42.962;1.596;2022-09-27T16:51:06;96841.94;;;14.57;78.49
58771;BME280;44539;42.962;1.596;2022-09-27T16:53:52;96861.06;;;14.54;80.63
58771;BME280;44539;42.962;1.596;2022-09-27T16:56:18;96853.44;;;14.44;78.19
58771;BME280;44539;42.962;1.596;2022-09-27T16:58:44;96850.19;;;14.42;78.80
58771;BME280;44539;42.962;1.596;2022-09-27T17:01:09;96847.28;;;14.44;77.26
58771;BME280;44539;42.962;1.596;2022-09-27T17:03:35;96864.38;;;14.36;79.97
58771;BME280;44539;42.962;1.596;2022-09-27T17:06:01;96866.44;;;14.27;78.69
58771;BME280;44539;42.962;1.596;2022-09-27T17:08:28;96875.06;;;14.29;78.83
58771;BME280;44539;42.962;1.596;2022-09-27T17:10:54;96879.16;;;14.25;79.40
58771;BME280;44539;42.962;1.596;2022-09-27T17:13:22;96884.28;;;14.20;80.55
58771;BME280;44539;42.962;1.596;2022-09-27T17:15:47;96885.72;;;14.09;79.96
58771;BME280;44539;42.962;1.596;2022-09-27T17:18:13;96895.56;;;14.09;78.86
58771;BME280;44539;42.962;1.596;2022-09-27T17:20:38;96882.66;;;14.13;78.77
58771;BME280;44539;42.962;1.596;2022-09-27T17:23:04;96885.09;;;14.07;80.96
58771;BME280;44539;42.962;1.596;2022-09-27T17:25:30;96894.53;;;14.03;80.43
58771;BME280;44539;42.962;1.596;2022-09-27T17:27:56;96896.81;;;14.06;79.66
58771;BME280;44539;42.962;1.596;2022-09-27T17:30:21;96905.84;;;14.12;79.77
58771;BME280;44539;42.962;1.596;2022-09-27T17:32:46;96918.56;;;14.03;80.87
58771;BME280;44539;42.962;1.596;2022-09-27T17:35:12;96916.50;;;14.05;81.44
58771;BME280;44539;42.962;1.596;2022-09-27T17:37:37;96903.97;;;13.99;82.60
58771;BME280;44539;42.962;1.596;2022-09-27T17:40:03;96915.50;;;14.00;81.35
58771;BME280;44539;42.962;1.596;2022-09-27T17:42:29;96903.41;;;14.11;80.66
58771;BME280;44539;42.962;1.596;2022-09-27T17:44:54;96917.75;;;14.16;80.29
58771;BME280;44539;42.962;1.596;2022-09-27T17:47:20;96906.88;;;14.18;80.09
58771;BME280;44539;42.962;1.596;2022-09-27T17:50:04;96911.59;;;14.16;80.21
58771;BME280;44539;42.962;1.596;2022-09-27T17:52:48;96907.94;;;14.17;80.60
58771;BME280;44539;42.962;1.596;2022-09-27T17:55:14;96897.81;;;14.05;81.78
58771;BME280;44539;42.962;1.596;2022-09-27T17:57:39;96895.38;;;14.04;82.28
58771;BME280;44539;42.962;1.596;2022-09-27T18:00:05;96908.31;;;14.00;83.92
58771;BME280;44539;42.962;1.596;2022-09-27T18:02:31;96918.56;;;13.97;85.28
58771;BME280;44539;42.962;1.596;2022-09-27T18:04:57;96924.91;;;13.89;87.36
58771;BME280;44539;42.962;1.596;2022-09-27T18:07:22;96918.97;;;13.87;86.10
58771;BME280;44539;42.962;1.596;2022-09-27T18:09:47;96919.16;;;13.85;86.89
58771;BME280;44539;42.962;1.596;2022-09-27T18:12:15;96905.00;;;13.85;86.70
58771;BME280;44539;42.962;1.596;2022-09-27T18:14:41;96922.66;;;13.93;85.31
58771;BME280;44539;42.962;1.596;2022-09-27T18:17:07;96903.75;;;13.87;86.70
58771;BME280;44539;42.962;1.596;2022-09-27T18:19:38;96912.59;;;13.88;86.77
58771;BME280;44539;42.962;1.596;2022-09-27T18:22:03;96927.38;;;13.91;87.07
58771;BME280;44539;42.962;1.596;2022-09-27T18:24:29;96935.16;;;13.79;89.04
58771;BME280;44539;42.962;1.596;2022-09-27T18:26:55;96937.59;;;13.74;90.66
58771;BME280;44539;42.962;1.596;2022-09-27T18:29:21;96945.97;;;13.57;93.76
58771;BME280;44539;42.962;1.596;2022-09-27T18:31:47;96948.31;;;13.32;94.30
58771;BME280;44539;42.962;1.596;2022-09-27T18:34:13;96936.31;;;13.21;97.14
58771;BME280;44539;42.962;1.596;2022-09-27T18:36:38;96956.38;;;13.11;98.23
58771;BME280;44539;42.962;1.596;2022-09-27T18:39:10;96935.44;;;13.14;97.90
58771;BME280;44539;42.962;1.596;2022-09-27T18:41:36;96933.41;;;13.16;96.88
58771;BME280;44539;42.962;1.596;2022-09-27T18:44:03;96935.03;;;13.11;96.85
58771;BME280;44539;42.962;1.596;2022-09-27T18:46:31;96933.00;;;13.13;97.81
58771;BME280;44539;42.962;1.596;2022-09-27T18:48:58;96927.44;;;13.14;95.94
58771;BME280;44539;42.962;1.596;2022-09-27T18:51:25;96937.09;;;13.15;97.03
58771;BME280;44539;42.962;1.596;2022-09-27T18:53:56;96941.63;;;13.15;95.64
58771;BME280;44539;42.962;1.596;2022-09-27T18:56:23;96918.03;;;13.18;94.84
58771;BME280;44539;42.962;1.596;2022-09-27T18:58:48;96939.22;;;13.26;92.29
58771;BME280;44539;42.962;1.596;2022-09-27T19:01:15;96931.19;;;13.20;92.51
58771;BME280;44539;42.962;1.596;2022-09-27T19:03:41;96920.34;;;13.28;91.21
58771;BME280;44539;42.962;1.596;2022-09-27T19:06:11;96922.19;;;13.27;92.97
58771;BME280;44539;42.962;1.596;2022-09-27T19:08:37;96925.31;;;13.31;90.13
58771;BME280;44539;42.962;1.596;2022-09-27T19:11:07;96931.19;;;13.26;92.92
58771;BME280;44539;42.962;1.596;2022-09-27T19:13:33;96916.88;;;13.27;91.60
58771;BME280;44539;42.962;1.596;2022-09-27T19:15:59;96925.53;;;13.30;90.59
58771;BME280;44539;42.962;1.596;2022-09-27T19:18:25;96925.31;;;13.31;91.37
58771;BME280;44539;42.962;1.596;2022-09-27T19:20:52;96924.09;;;13.34;90.45
58771;BME280;44539;42.962;1.596;2022-09-27T19:23:18;96932.31;;;13.39;86.40
58771;BME280;44539;42.962;1.596;2022-09-27T19:25:48;96931.91;;;13.42;84.90
58771;BME280;44539;42.962;1.596;2022-09-27T19:28:13;96934.00;;;13.46;84.82
58771;BME280;44539;42.962;1.596;2022-09-27T19:30:40;96934.06;;;13.60;82.50
58771;BME280;44539;42.962;1.596;2022-09-27T19:33:05;96926.88;;;13.67;81.23
58771;BME280;44539;42.962;1.596;2022-09-27T19:35:31;96927.94;;;13.66;82.48
58771;BME280;44539;42.962;1.596;2022-09-27T19:37:56;96927.72;;;13.67;81.63
58771;BME280;44539;42.962;1.596;2022-09-27T19:40:22;96935.94;;;13.66;81.14
58771;BME280;44539;42.962;1.596;2022-09-27T19:42:51;96940.25;;;13.74;79.78
58771;BME280;44539;42.962;1.596;2022-09-27T19:45:17;96928.56;;;13.75;81.29
58771;BME280;44539;42.962;1.596;2022-09-27T19:47:43;96930.44;;;13.81;80.69
58771;BME280;44539;42.962;1.596;2022-09-27T19:50:08;96927.94;;;13.73;81.30
58771;BME280;44539;42.962;1.596;2022-09-27T19:52:34;96928.75;;;13.73;81.56
58771;BME280;44539;42.962;1.596;2022-09-27T19:54:59;96931.44;;;13.73;81.36
58771;BME280;44539;42.962;1.596;2022-09-27T19:57:25;96927.94;;;13.73;82.78
58771;BME280;44539;42.962;1.596;2022-09-27T19:59:50;96938.44;;;13.74;80.90
58771;BME280;44539;42.962;1.596;2022-09-27T20:02:16;96930.19;;;13.76;81.23
58771;BME280;44539;42.962;1.596;2022-09-27T20:04:41;96932.25;;;13.74;81.09
58771;BME280;44539;42.962;1.596;2022-09-27T20:07:06;96941.06;;;13.67;82.27
58771;BME280;44539;42.962;1.596;2022-09-27T20:09:32;96928.31;;;13.69;81.36
58771;BME280;44539;42.962;1.596;2022-09-27T20:11:57;96927.09;;;13.65;84.05
58771;BME280;44539;42.962;1.596;2022-09-27T20:14:23;96926.69;;;13.68;81.61
58771;BME280;44539;42.962;1.596;2022-09-27T20:16:48;96920.94;;;13.72;80.95
58771;BME280;44539;42.962;1.596;2022-09-27T20:19:14;96921.56;;;13.74;79.70
58771;BME280;44539;42.962;1.596;2022-09-27T20:21:40;96915.44;;;13.80;79.11
58771;BME280;44539;42.962;1.596;2022-09-27T20:24:06;96916.66;;;13.77;78.96
58771;BME280;44539;42.962;1.596;2022-09-27T20:26:32;96898.59;;;13.73;78.79
58771;BME280;44539;42.962;1.596;2022-09-27T20:28:59;96894.66;;;13.68;79.37
58771;BME280;44539;42.962;1.596;2022-09-27T20:31:31;96901.03;;;13.67;79.95
58771;BME280;44539;42.962;1.596;2022-09-27T20:33:58;96897.97;;;13.71;78.65
58771;BME280;44539;42.962;1.596;2022-09-27T20:36:26;96894.66;;;13.62;81.11
58771;BME280;44539;42.962;1.596;2022-09-27T20:38:53;96890.34;;;13.67;78.79
58771;BME280;44539;42.962;1.596;2022-09-27T20:41:21;96886.47;;;13.63;80.12
58771;BME280;44539;42.962;1.596;2022-09-27T20:43:51;96878.47;;;13.70;79.74
58771;BME280;44539;42.962;1.596;2022-09-27T20:46:17;96883.19;;;13.68;79.45
58771;BME280;44539;42.962;1.596;2022-09-27T20:48:44;96873.31;;;13.68;78.38
58771;BME280;44539;42.962;1.596;2022-09-27T20:51:12;96877.66;;;13.76;78.19
58771;BME280;44539;42.962;1.596;2022-09-27T20:53:42;96865.97;;;13.91;76.93
58771;BME280;44539;42.962;1.596;2022-09-27T20:56:19;96864.72;;;13.80;79.28
58771;BME280;44539;42.962;1.596;2022-09-27T20:58:46;96866.75;;;13.78;79.55
58771;BME280;44539;42.962;1.596;2022-09-27T21:01:12;96850.56;;;13.86;77.22
58771;BME280;44539;42.962;1.596;2022-09-27T21:03:37;96854.47;;;13.83;77.59
58771;BME280;44539;42.962;1.596;2022-09-27T21:06:03;96852.00;;;13.82;79.06
58771;BME280;44539;42.962;1.596;2022-09-27T21:08:30;96853.22;;;13.73;79.00
58771;BME280;44539;42.962;1.596;2022-09-27T21:11:04;96846.03;;;13.73;78.29
58771;BME280;44539;42.962;1.596;2022-09-27T21:13:29;96848.25;;;13.69;79.37
58771;BME280;44539;42.962;1.596;2022-09-27T21:16:01;96840.69;;;13.66;79.34
58771;BME280;44539;42.962;1.596;2022-09-27T21:18:27;96849.50;;;13.60;80.51
58771;BME280;44539;42.962;1.596;2022-09-27T21:21:04;96835.09;;;13.55;81.66
58771;BME280;44539;42.962;1.596;2022-09-27T21:23:31;96837.97;;;13.53;81.99
58771;BME280;44539;42.962;1.596;2022-09-27T21:28:38;96843.59;;;13.23;88.20
58771;BME280;44539;42.962;1.596;2022-09-27T21:31:06;96842.34;;;13.13;89.43
58771;BME280;44539;42.962;1.596;2022-09-27T21:33:32;96841.47;;;13.05;90.19
58771;BME280;44539;42.962;1.596;2022-09-27T21:35:58;96836.34;;;13.04;89.31
58771;BME280;44539;42.962;1.596;2022-09-27T21:38:24;96823.66;;;13.13;86.49
58771;BME280;44539;42.962;1.596;2022-09-27T21:40:57;96827.78;;;13.15;86.12
58771;BME280;44539;42.962;1.596;2022-09-27T21:43:27;96816.69;;;13.18;86.20
58771;BME280;44539;42.962;1.596;2022-09-27T21:45:53;96818.53;;;13.18;88.66
58771;BME280;44539;42.962;1.596;2022-09-27T21:48:18;96826.34;;;13.13;90.03
58771;BME280;44539;42.962;1.596;2022-09-27T21:50:44;96817.28;;;13.07;91.21
58771;BME280;44539;42.962;1.596;2022-09-27T21:53:09;96817.84;;;12.96;91.91
58771;BME280;44539;42.962;1.596;2022-09-27T21:55:35;96823.34;;;12.87;95.22
58771;BME280;44539;42.962;1.596;2022-09-27T21:58:01;96821.66;;;12.80;95.05
58771;BME280;44539;42.962;1.596;2022-09-27T22:00:26;96817.09;;;12.67;95.25
58771;BME280;44539;42.962;1.596;2022-09-27T22:02:57;96821.41;;;12.68;96.03
58771;BME280;44539;42.962;1.596;2022-09-27T22:05:23;96815.78;;;12.56;96.22
58771;BME280;44539;42.962;1.596;2022-09-27T22:07:48;96825.59;;;12.49;97.65
58771;BME280;44539;42.962;1.596;2022-09-27T22:10:13;96828.75;;;12.31;97.76
58771;BME280;44539;42.962;1.596;2022-09-27T22:12:39;96819.69;;;12.25;99.01
58771;BME280;44539;42.962;1.596;2022-09-27T22:15:05;96817.06;;;12.32;98.72
58771;BME280;44539;42.962;1.596;2022-09-27T22:17:30;96817.84;;;12.26;100.00
58771;BME280;44539;42.962;1.596;2022-09-27T22:19:55;96813.97;;;12.29;99.69
58771;BME280;44539;42.962;1.596;2022-09-27T22:22:21;96812.53;;;12.26;100.00
58771;BME280;44539;42.962;1.596;2022-09-27T22:24:46;96808.84;;;12.27;100.00
58771;BME280;44539;42.962;1.596;2022-09-27T22:27:12;96806.38;;;12.25;100.00
58771;BME280;44539;42.962;1.596;2022-09-27T22:29:37;96797.56;;;12.25;100.00
58771;BME280;44539;42.962;1.596;2022-09-27T22:32:02;96788.13;;;12.22;100.00
58771;BME280;44539;42.962;1.596;2022-09-27T22:34:28;96788.34;;;12.21;100.00
58771;BME280;44539;42.962;1.596;2022-09-27T22:36:57;96777.91;;;12.26;100.00
58771;BME280;44539;42.962;1.596;2022-09-27T22:39:25;96770.06;;;12.18;100.00
58771;BME280;44539;42.962;1.596;2022-09-27T22:41:50;96787.44;;;12.14;100.00
58771;BME280;44539;42.962;1.596;2022-09-27T22:44:15;96769.25;;;12.17;100.00
58771;BME280;44539;42.962;1.596;2022-09-27T22:46:41;96766.78;;;12.16;100.00
58771;BME280;44539;42.962;1.596;2022-09-27T22:49:07;96767.00;;;12.14;100.00
58771;BME280;44539;42.962;1.596;2022-09-27T22:51:32;96765.72;;;12.10;100.00
58771;BME280;44539;42.962;1.596;2022-09-27T22:53:58;96762.28;;;12.16;100.00
58771;BME280;44539;42.962;1.596;2022-09-27T22:56:23;96776.16;;;12.12;100.00
58771;BME280;44539;42.962;1.596;2022-09-27T22:58:49;96764.97;;;12.16;100.00
58771;BME280;44539;42.962;1.596;2022-09-27T23:01:19;96760.44;;;12.17;100.00
58771;BME280;44539;42.962;1.596;2022-09-27T23:03:46;96758.38;;;12.12;100.00
58771;BME280;44539;42.962;1.596;2022-09-27T23:06:13;96747.13;;;12.17;100.00